North Vernon, IN (47265)

3:33 PM EST on December 25, 2014 (GMT -0500)
North Vernon - East | Change Station
CLOSE
Current Station
Personal Weather Station
Location: North Vernon, IN
Elevation: 761 ft
Nearby Weather Stations

Elev 761 ft 39.01 °N, 85.59 °W | Updated 2 minutes ago

Overcast
Overcast
42.4 °F
Feels Like 42 °F
N
2.7
Wind Variable Wind from SSW

Today
High -- | Low -- °F
--% Chance of Precip.
Yesterday
High -- | Low -- °F
Precip. -- in
7:59 AM 5:25 PM
Waxing Crescent, 19% visible
Pressure 30.11 in
Visibility 10.0 miles
Clouds Overcast 2600 ft
Windchill 42 °F
Dew Point 37 °F
Humidity 80%
Rainfall 0.04 in
Snow Depth Not available.
UV 0 out of 12
Pollen .10 out of 12
Air Quality Not available.
Flu Activity Not available.
METAR KBAK 251950Z 20010KT 10SM OVC026 05/01 A3011

More Conditions Fewer Conditions

Pressure 30.11 in
Visibility 10.0 miles
Clouds Overcast 2600 ft
Windchill 42 °F
Dew Point 37 °F
Humidity 80%
Rainfall 0.04 in
Snow Depth Not available.
UV 0 out of 12
Pollen .10 out of 12
Air Quality Not available.
Flu Activity Not available.
METAR KBAK 251950Z 20010KT 10SM OVC026 05/01 A3011

More Conditions Fewer Conditions

10-Day Weather Forecast

Almanac

Astronomy

Dec. 25, 2014 Rise Set
Actual Time
Civil Twilight
Nautical Twilight
Astronomical Twilight
Moon
Length of Visible Light
Length of Day
Tomorrow will be .
, % of the Moon is Illuminated

Today's Extremes

State Highs State Lows

Community

WunderPhotos

Upload Photos

1,780,392 photos uploaded!

WunderBlogs® & News

Nearby

Air Quality

  Air Quality AQ Index Pollutant
Not available.

Snow Depth

Station Depth Elevation

Earthquake Activity

City Distance Mag. Time & Date
Minimum magnitude displayed is 2.5.

Coastal Water Temperatures

Place Temperature

Nearby Weather Stations